sensor_id;sensor_type;location;lat;lon;timestamp;P1;P2;P0
40947;PMS5003;49382;-25.924;28.194;2023-02-28T00:01:50;9;9;
40947;PMS5003;49382;-25.924;28.194;2023-02-28T00:04:16;10;10;
40947;PMS5003;49382;-25.924;28.194;2023-02-28T00:06:42;10;10;
40947;PMS5003;49382;-25.924;28.194;2023-02-28T00:09:07;11;11;
40947;PMS5003;49382;-25.924;28.194;2023-02-28T00:11:33;9;9;
40947;PMS5003;49382;-25.924;28.194;2023-02-28T00:13:59;12;12;
40947;PMS5003;49382;-25.924;28.194;2023-02-28T00:16:25;8;8;
40947;PMS5003;49382;-25.924;28.194;2023-02-28T00:18:50;10;10;
40947;PMS5003;49382;-25.924;28.194;2023-02-28T00:21:16;9;8;
40947;PMS5003;49382;-25.924;28.194;2023-02-28T00:23:42;9;8;
40947;PMS5003;49382;-25.924;28.194;2023-02-28T00:26:08;11;11;
40947;PMS5003;49382;-25.924;28.194;2023-02-28T00:28:34;10;9;
40947;PMS5003;49382;-25.924;28.194;2023-02-28T00:31:00;10;10;
40947;PMS5003;49382;-25.924;28.194;2023-02-28T00:33:25;9;9;
40947;PMS5003;49382;-25.924;28.194;2023-02-28T00:35:51;9;9;
40947;PMS5003;49382;-25.924;28.194;2023-02-28T00:38:17;16;15;
40947;PMS5003;49382;-25.924;28.194;2023-02-28T00:40:42;16;15;
40947;PMS5003;49382;-25.924;28.194;2023-02-28T00:43:08;12;12;
40947;PMS5003;49382;-25.924;28.194;2023-02-28T00:45:34;15;13;
40947;PMS5003;49382;-25.924;28.194;2023-02-28T00:47:59;15;15;
40947;PMS5003;49382;-25.924;28.194;2023-02-28T00:50:25;16;16;
40947;PMS5003;49382;-25.924;28.194;2023-02-28T00:52:51;17;16;
40947;PMS5003;49382;-25.924;28.194;2023-02-28T00:55:17;18;17;
40947;PMS5003;49382;-25.924;28.194;2023-02-28T00:57:43;16;16;
40947;PMS5003;49382;-25.924;28.194;2023-02-28T01:00:09;14;14;
40947;PMS5003;49382;-25.924;28.194;2023-02-28T01:02:34;18;17;
40947;PMS5003;49382;-25.924;28.194;2023-02-28T01:05:00;18;18;
40947;PMS5003;49382;-25.924;28.194;2023-02-28T01:07:25;22;21;
40947;PMS5003;49382;-25.924;28.194;2023-02-28T01:09:51;16;15;
40947;PMS5003;49382;-25.924;28.194;2023-02-28T01:12:17;16;16;
40947;PMS5003;49382;-25.924;28.194;2023-02-28T01:14:43;18;18;
40947;PMS5003;49382;-25.924;28.194;2023-02-28T01:17:08;12;12;
40947;PMS5003;49382;-25.924;28.194;2023-02-28T01:19:34;14;13;
40947;PMS5003;49382;-25.924;28.194;2023-02-28T01:22:00;15;14;
40947;PMS5003;49382;-25.924;28.194;2023-02-28T01:24:25;16;15;
40947;PMS5003;49382;-25.924;28.194;2023-02-28T01:26:51;15;15;
40947;PMS5003;49382;-25.924;28.194;2023-02-28T01:29:17;14;14;
40947;PMS5003;49382;-25.924;28.194;2023-02-28T01:31:43;15;15;
40947;PMS5003;49382;-25.924;28.194;2023-02-28T01:34:08;15;15;
40947;PMS5003;49382;-25.924;28.194;2023-02-28T01:36:34;13;13;
40947;PMS5003;49382;-25.924;28.194;2023-02-28T01:39:00;13;12;
40947;PMS5003;49382;-25.924;28.194;2023-02-28T01:41:27;10;10;
40947;PMS5003;49382;-25.924;28.194;2023-02-28T01:43:54;9;9;
40947;PMS5003;49382;-25.924;28.194;2023-02-28T01:46:17;10;10;
40947;PMS5003;49382;-25.924;28.194;2023-02-28T01:48:44;11;11;
40947;PMS5003;49382;-25.924;28.194;2023-02-28T01:51:09;12;11;
40947;PMS5003;49382;-25.924;28.194;2023-02-28T01:53:35;11;11;
40947;PMS5003;49382;-25.924;28.194;2023-02-28T01:56:00;12;12;
40947;PMS5003;49382;-25.924;28.194;2023-02-28T01:58:26;13;13;
40947;PMS5003;49382;-25.924;28.194;2023-02-28T02:00:51;12;12;
40947;PMS5003;49382;-25.924;28.194;2023-02-28T02:03:18;9;9;
40947;PMS5003;49382;-25.924;28.194;2023-02-28T02:05:43;9;9;
40947;PMS5003;49382;-25.924;28.194;2023-02-28T02:08:10;12;12;
40947;PMS5003;49382;-25.924;28.194;2023-02-28T02:10:35;11;10;
40947;PMS5003;49382;-25.924;28.194;2023-02-28T02:13:04;11;11;
40947;PMS5003;49382;-25.924;28.194;2023-02-28T02:15:28;21;16;
40947;PMS5003;49382;-25.924;28.194;2023-02-28T02:17:51;18;15;
40947;PMS5003;49382;-25.924;28.194;2023-02-28T02:25:11;11;10;
40947;PMS5003;49382;-25.924;28.194;2023-02-28T02:27:38;13;11;
40947;PMS5003;49382;-25.924;28.194;2023-02-28T02:32:29;12;11;
40947;PMS5003;49382;-25.924;28.194;2023-02-28T02:34:53;10;10;
40947;PMS5003;49382;-25.924;28.194;2023-02-28T02:37:21;12;12;
40947;PMS5003;49382;-25.924;28.194;2023-02-28T02:39:45;10;10;
40947;PMS5003;49382;-25.924;28.194;2023-02-28T02:42:11;10;10;
40947;PMS5003;49382;-25.924;28.194;2023-02-28T02:44:36;9;9;
40947;PMS5003;49382;-25.924;28.194;2023-02-28T02:47:01;9;9;
40947;PMS5003;49382;-25.924;28.194;2023-02-28T02:49:27;11;11;
40947;PMS5003;49382;-25.924;28.194;2023-02-28T02:51:52;9;8;
40947;PMS5003;49382;-25.924;28.194;2023-02-28T02:54:18;8;8;
40947;PMS5003;49382;-25.924;28.194;2023-02-28T02:56:44;7;7;
40947;PMS5003;49382;-25.924;28.194;2023-02-28T02:59:11;7;7;
40947;PMS5003;49382;-25.924;28.194;2023-02-28T03:01:35;8;8;
40947;PMS5003;49382;-25.924;28.194;2023-02-28T03:04:02;8;8;
40947;PMS5003;49382;-25.924;28.194;2023-02-28T03:06:26;9;8;
40947;PMS5003;49382;-25.924;28.194;2023-02-28T03:08:52;6;6;
40947;PMS5003;49382;-25.924;28.194;2023-02-28T03:11:18;15;15;
40947;PMS5003;49382;-25.924;28.194;2023-02-28T03:18:38;14;13;
40947;PMS5003;49382;-25.924;28.194;2023-02-28T03:21:03;19;19;
40947;PMS5003;49382;-25.924;28.194;2023-02-28T03:23:28;39;39;
40947;PMS5003;49382;-25.924;28.194;2023-02-28T03:25:55;12;12;
40947;PMS5003;49382;-25.924;28.194;2023-02-28T03:28:19;12;12;
40947;PMS5003;49382;-25.924;28.194;2023-02-28T03:30:47;15;15;
40947;PMS5003;49382;-25.924;28.194;2023-02-28T03:33:11;14;14;
40947;PMS5003;49382;-25.924;28.194;2023-02-28T03:35:37;32;32;
40947;PMS5003;49382;-25.924;28.194;2023-02-28T03:38:03;30;30;
40947;PMS5003;49382;-25.924;28.194;2023-02-28T03:40:27;14;14;
40947;PMS5003;49382;-25.924;28.194;2023-02-28T03:42:54;27;27;
40947;PMS5003;49382;-25.924;28.194;2023-02-28T03:45:19;15;15;
40947;PMS5003;49382;-25.924;28.194;2023-02-28T03:47:45;14;14;
40947;PMS5003;49382;-25.924;28.194;2023-02-28T03:50:11;17;16;
40947;PMS5003;49382;-25.924;28.194;2023-02-28T03:52:40;41;41;
40947;PMS5003;49382;-25.924;28.194;2023-02-28T03:55:02;60;60;
40947;PMS5003;49382;-25.924;28.194;2023-02-28T03:57:27;46;45;
40947;PMS5003;49382;-25.924;28.194;2023-02-28T03:59:52;43;42;
40947;PMS5003;49382;-25.924;28.194;2023-02-28T04:02:16;42;42;
40947;PMS5003;49382;-25.924;28.194;2023-02-28T04:04:41;43;42;
40947;PMS5003;49382;-25.924;28.194;2023-02-28T04:07:07;40;40;
40947;PMS5003;49382;-25.924;28.194;2023-02-28T04:09:32;18;18;
40947;PMS5003;49382;-25.924;28.194;2023-02-28T04:11:58;16;16;
40947;PMS5003;49382;-25.924;28.194;2023-02-28T04:14:24;17;17;
40947;PMS5003;49382;-25.924;28.194;2023-02-28T04:16:50;16;15;
40947;PMS5003;49382;-25.924;28.194;2023-02-28T04:19:16;21;21;
40947;PMS5003;49382;-25.924;28.194;2023-02-28T04:21:42;21;20;
40947;PMS5003;49382;-25.924;28.194;2023-02-28T04:24:07;58;57;
40947;PMS5003;49382;-25.924;28.194;2023-02-28T04:26:32;48;48;
40947;PMS5003;49382;-25.924;28.194;2023-02-28T04:28:57;40;40;
40947;PMS5003;49382;-25.924;28.194;2023-02-28T04:31:22;69;68;
40947;PMS5003;49382;-25.924;28.194;2023-02-28T04:33:47;53;53;
40947;PMS5003;49382;-25.924;28.194;2023-02-28T04:36:13;63;63;
40947;PMS5003;49382;-25.924;28.194;2023-02-28T04:38:38;33;33;
40947;PMS5003;49382;-25.924;28.194;2023-02-28T04:41:04;26;25;
40947;PMS5003;49382;-25.924;28.194;2023-02-28T04:43:29;20;20;
40947;PMS5003;49382;-25.924;28.194;2023-02-28T04:45:55;25;25;
40947;PMS5003;49382;-25.924;28.194;2023-02-28T04:48:21;26;25;
40947;PMS5003;49382;-25.924;28.194;2023-02-28T04:50:46;26;26;
40947;PMS5003;49382;-25.924;28.194;2023-02-28T04:53:12;29;29;
40947;PMS5003;49382;-25.924;28.194;2023-02-28T04:55:38;21;21;
40947;PMS5003;49382;-25.924;28.194;2023-02-28T04:58:04;30;29;
40947;PMS5003;49382;-25.924;28.194;2023-02-28T05:00:30;28;28;
40947;PMS5003;49382;-25.924;28.194;2023-02-28T05:02:55;24;24;
40947;PMS5003;49382;-25.924;28.194;2023-02-28T05:05:21;25;24;
40947;PMS5003;49382;-25.924;28.194;2023-02-28T05:07:47;25;25;
40947;PMS5003;49382;-25.924;28.194;2023-02-28T05:10:12;29;29;
40947;PMS5003;49382;-25.924;28.194;2023-02-28T05:12:37;22;22;
40947;PMS5003;49382;-25.924;28.194;2023-02-28T05:15:03;25;25;
40947;PMS5003;49382;-25.924;28.194;2023-02-28T05:17:29;26;25;
40947;PMS5003;49382;-25.924;28.194;2023-02-28T05:19:55;21;21;
40947;PMS5003;49382;-25.924;28.194;2023-02-28T05:22:20;20;20;
40947;PMS5003;49382;-25.924;28.194;2023-02-28T05:24:46;20;20;
40947;PMS5003;49382;-25.924;28.194;2023-02-28T05:27:11;20;20;
40947;PMS5003;49382;-25.924;28.194;2023-02-28T05:29:37;18;18;
40947;PMS5003;49382;-25.924;28.194;2023-02-28T05:32:03;20;20;
40947;PMS5003;49382;-25.924;28.194;2023-02-28T05:34:28;21;21;
40947;PMS5003;49382;-25.924;28.194;2023-02-28T05:36:54;16;16;
40947;PMS5003;49382;-25.924;28.194;2023-02-28T05:39:20;17;17;
40947;PMS5003;49382;-25.924;28.194;2023-02-28T05:41:45;15;14;
40947;PMS5003;49382;-25.924;28.194;2023-02-28T05:44:11;14;13;
40947;PMS5003;49382;-25.924;28.194;2023-02-28T05:46:37;14;14;
40947;PMS5003;49382;-25.924;28.194;2023-02-28T05:49:03;13;13;
40947;PMS5003;49382;-25.924;28.194;2023-02-28T05:51:29;14;14;
40947;PMS5003;49382;-25.924;28.194;2023-02-28T05:53:54;11;11;
40947;PMS5003;49382;-25.924;28.194;2023-02-28T05:56:20;11;11;
40947;PMS5003;49382;-25.924;28.194;2023-02-28T05:58:46;12;12;
40947;PMS5003;49382;-25.924;28.194;2023-02-28T06:03:37;9;9;
40947;PMS5003;49382;-25.924;28.194;2023-02-28T06:06:03;8;8;
40947;PMS5003;49382;-25.924;28.194;2023-02-28T06:08:29;8;8;
40947;PMS5003;49382;-25.924;28.194;2023-02-28T06:13:21;7;7;
40947;PMS5003;49382;-25.924;28.194;2023-02-28T06:15:46;7;7;
40947;PMS5003;49382;-25.924;28.194;2023-02-28T06:18:12;7;7;
40947;PMS5003;49382;-25.924;28.194;2023-02-28T06:20:38;8;7;
40947;PMS5003;49382;-25.924;28.194;2023-02-28T06:23:03;5;5;
40947;PMS5003;49382;-25.924;28.194;2023-02-28T06:25:29;8;8;
40947;PMS5003;49382;-25.924;28.194;2023-02-28T06:27:55;6;6;
40947;PMS5003;49382;-25.924;28.194;2023-02-28T06:30:21;5;5;
40947;PMS5003;49382;-25.924;28.194;2023-02-28T06:32:46;3;3;
40947;PMS5003;49382;-25.924;28.194;2023-02-28T06:35:12;3;3;
40947;PMS5003;49382;-25.924;28.194;2023-02-28T06:37:38;1;1;
40947;PMS5003;49382;-25.924;28.194;2023-02-28T06:40:04;1;1;
40947;PMS5003;49382;-25.924;28.194;2023-02-28T06:42:29;2;2;
40947;PMS5003;49382;-25.924;28.194;2023-02-28T06:44:55;1;1;
40947;PMS5003;49382;-25.924;28.194;2023-02-28T06:47:21;2;2;
40947;PMS5003;49382;-25.924;28.194;2023-02-28T06:49:47;1;1;
40947;PMS5003;49382;-25.924;28.194;2023-02-28T06:52:12;1;1;
40947;PMS5003;49382;-25.924;28.194;2023-02-28T06:54:38;2;2;
40947;PMS5003;49382;-25.924;28.194;2023-02-28T06:57:04;3;2;
40947;PMS5003;49382;-25.924;28.194;2023-02-28T06:59:29;1;1;
40947;PMS5003;49382;-25.924;28.194;2023-02-28T07:01:55;1;1;
40947;PMS5003;49382;-25.924;28.194;2023-02-28T07:04:21;2;1;
40947;PMS5003;49382;-25.924;28.194;2023-02-28T07:06:47;1;1;
40947;PMS5003;49382;-25.924;28.194;2023-02-28T07:09:12;1;0;
40947;PMS5003;49382;-25.924;28.194;2023-02-28T07:11:38;8;8;
40947;PMS5003;49382;-25.924;28.194;2023-02-28T07:14:04;1;1;
40947;PMS5003;49382;-25.924;28.194;2023-02-28T07:16:29;0;0;
40947;PMS5003;49382;-25.924;28.194;2023-02-28T07:18:55;1;1;
40947;PMS5003;49382;-25.924;28.194;2023-02-28T07:21:21;1;1;
40947;PMS5003;49382;-25.924;28.194;2023-02-28T07:23:47;2;2;
40947;PMS5003;49382;-25.924;28.194;2023-02-28T07:26:13;1;1;
40947;PMS5003;49382;-25.924;28.194;2023-02-28T07:28:38;0;0;
40947;PMS5003;49382;-25.924;28.194;2023-02-28T07:31:04;2;2;
40947;PMS5003;49382;-25.924;28.194;2023-02-28T07:33:30;1;1;
40947;PMS5003;49382;-25.924;28.194;2023-02-28T07:36:00;2;2;
40947;PMS5003;49382;-25.924;28.194;2023-02-28T07:38:21;0;0;
40947;PMS5003;49382;-25.924;28.194;2023-02-28T07:40:47;2;2;
40947;PMS5003;49382;-25.924;28.194;2023-02-28T07:43:12;1;1;
40947;PMS5003;49382;-25.924;28.194;2023-02-28T07:45:38;1;1;
40947;PMS5003;49382;-25.924;28.194;2023-02-28T07:48:04;1;1;
40947;PMS5003;49382;-25.924;28.194;2023-02-28T07:50:30;1;1;
40947;PMS5003;49382;-25.924;28.194;2023-02-28T07:52:55;2;2;
40947;PMS5003;49382;-25.924;28.194;2023-02-28T07:55:21;1;1;
40947;PMS5003;49382;-25.924;28.194;2023-02-28T07:57:47;1;1;
40947;PMS5003;49382;-25.924;28.194;2023-02-28T08:00:13;1;1;
40947;PMS5003;49382;-25.924;28.194;2023-02-28T08:02:38;0;0;
40947;PMS5003;49382;-25.924;28.194;2023-02-28T08:05:04;2;2;
40947;PMS5003;49382;-25.924;28.194;2023-02-28T08:07:30;2;2;
40947;PMS5003;49382;-25.924;28.194;2023-02-28T08:09:55;1;1;
40947;PMS5003;49382;-25.924;28.194;2023-02-28T08:12:21;1;1;
40947;PMS5003;49382;-25.924;28.194;2023-02-28T08:14:47;2;1;
40947;PMS5003;49382;-25.924;28.194;2023-02-28T08:17:13;0;0;
40947;PMS5003;49382;-25.924;28.194;2023-02-28T08:19:38;1;1;
40947;PMS5003;49382;-25.924;28.194;2023-02-28T08:22:04;0;0;
40947;PMS5003;49382;-25.924;28.194;2023-02-28T08:24:30;2;1;
40947;PMS5003;49382;-25.924;28.194;2023-02-28T08:26:56;2;1;
40947;PMS5003;49382;-25.924;28.194;2023-02-28T08:29:21;2;2;
40947;PMS5003;49382;-25.924;28.194;2023-02-28T08:31:47;4;4;
40947;PMS5003;49382;-25.924;28.194;2023-02-28T08:34:13;23;23;
40947;PMS5003;49382;-25.924;28.194;2023-02-28T08:36:38;30;30;
40947;PMS5003;49382;-25.924;28.194;2023-02-28T08:39:04;32;31;
40947;PMS5003;49382;-25.924;28.194;2023-02-28T08:41:30;25;24;
40947;PMS5003;49382;-25.924;28.194;2023-02-28T08:43:56;8;8;
40947;PMS5003;49382;-25.924;28.194;2023-02-28T08:46:22;9;9;
40947;PMS5003;49382;-25.924;28.194;2023-02-28T08:48:51;15;15;
40947;PMS5003;49382;-25.924;28.194;2023-02-28T08:51:14;13;13;
40947;PMS5003;49382;-25.924;28.194;2023-02-28T08:53:39;15;15;
40947;PMS5003;49382;-25.924;28.194;2023-02-28T08:56:06;11;11;
40947;PMS5003;49382;-25.924;28.194;2023-02-28T08:58:30;9;9;
40947;PMS5003;49382;-25.924;28.194;2023-02-28T09:00:56;9;9;
40947;PMS5003;49382;-25.924;28.194;2023-02-28T09:03:22;8;8;
40947;PMS5003;49382;-25.924;28.194;2023-02-28T09:08:13;14;14;
40947;PMS5003;49382;-25.924;28.194;2023-02-28T09:10:39;16;16;
40947;PMS5003;49382;-25.924;28.194;2023-02-28T09:13:05;11;11;
40947;PMS5003;49382;-25.924;28.194;2023-02-28T09:15:30;13;13;
40947;PMS5003;49382;-25.924;28.194;2023-02-28T09:17:56;12;12;
40947;PMS5003;49382;-25.924;28.194;2023-02-28T09:20:22;10;10;
40947;PMS5003;49382;-25.924;28.194;2023-02-28T09:22:47;9;9;
40947;PMS5003;49382;-25.924;28.194;2023-02-28T09:25:13;11;10;
40947;PMS5003;49382;-25.924;28.194;2023-02-28T09:27:39;9;8;
40947;PMS5003;49382;-25.924;28.194;2023-02-28T09:30:05;9;9;
40947;PMS5003;49382;-25.924;28.194;2023-02-28T09:32:31;6;6;
40947;PMS5003;49382;-25.924;28.194;2023-02-28T09:34:56;5;5;
40947;PMS5003;49382;-25.924;28.194;2023-02-28T09:37:22;5;4;
40947;PMS5003;49382;-25.924;28.194;2023-02-28T09:39:47;5;4;
40947;PMS5003;49382;-25.924;28.194;2023-02-28T09:42:18;5;4;
40947;PMS5003;49382;-25.924;28.194;2023-02-28T09:44:40;4;4;
40947;PMS5003;49382;-25.924;28.194;2023-02-28T09:47:08;3;3;
40947;PMS5003;49382;-25.924;28.194;2023-02-28T09:49:33;4;4;
40947;PMS5003;49382;-25.924;28.194;2023-02-28T09:51:58;3;3;
40947;PMS5003;49382;-25.924;28.194;2023-02-28T09:54:24;6;6;
40947;PMS5003;49382;-25.924;28.194;2023-02-28T09:56:48;5;5;
40947;PMS5003;49382;-25.924;28.194;2023-02-28T09:59:16;6;6;
40947;PMS5003;49382;-25.924;28.194;2023-02-28T10:01:41;6;6;
40947;PMS5003;49382;-25.924;28.194;2023-02-28T10:04:08;6;6;
40947;PMS5003;49382;-25.924;28.194;2023-02-28T10:06:32;6;6;
40947;PMS5003;49382;-25.924;28.194;2023-02-28T10:08:58;5;5;
40947;PMS5003;49382;-25.924;28.194;2023-02-28T10:11:22;5;5;
40947;PMS5003;49382;-25.924;28.194;2023-02-28T10:13:51;5;4;
40947;PMS5003;49382;-25.924;28.194;2023-02-28T10:16:14;5;5;
40947;PMS5003;49382;-25.924;28.194;2023-02-28T10:18:40;4;4;
40947;PMS5003;49382;-25.924;28.194;2023-02-28T10:21:05;3;3;
40947;PMS5003;49382;-25.924;28.194;2023-02-28T10:23:32;3;3;
40947;PMS5003;49382;-25.924;28.194;2023-02-28T10:25:59;6;6;
40947;PMS5003;49382;-25.924;28.194;2023-02-28T10:28:22;7;7;
40947;PMS5003;49382;-25.924;28.194;2023-02-28T10:30:48;6;6;
40947;PMS5003;49382;-25.924;28.194;2023-02-28T10:33:18;6;6;
40947;PMS5003;49382;-25.924;28.194;2023-02-28T10:35:39;4;4;
40947;PMS5003;49382;-25.924;28.194;2023-02-28T10:38:08;5;5;
40947;PMS5003;49382;-25.924;28.194;2023-02-28T10:40:32;5;5;
40947;PMS5003;49382;-25.924;28.194;2023-02-28T10:42:56;4;4;
40947;PMS5003;49382;-25.924;28.194;2023-02-28T10:45:22;5;5;
40947;PMS5003;49382;-25.924;28.194;2023-02-28T10:47:50;7;7;
40947;PMS5003;49382;-25.924;28.194;2023-02-28T10:52:39;6;5;
40947;PMS5003;49382;-25.924;28.194;2023-02-28T10:57:30;5;4;
40947;PMS5003;49382;-25.924;28.194;2023-02-28T11:00:05;4;4;
40947;PMS5003;49382;-25.924;28.194;2023-02-28T11:04:47;4;4;
40947;PMS5003;49382;-25.924;28.194;2023-02-28T11:07:17;3;3;
40947;PMS5003;49382;-25.924;28.194;2023-02-28T11:09:39;4;4;
40947;PMS5003;49382;-25.924;28.194;2023-02-28T11:12:05;4;4;
40947;PMS5003;49382;-25.924;28.194;2023-02-28T11:14:31;3;3;
40947;PMS5003;49382;-25.924;28.194;2023-02-28T11:16:56;2;2;
40947;PMS5003;49382;-25.924;28.194;2023-02-28T11:19:23;2;2;
40947;PMS5003;49382;-25.924;28.194;2023-02-28T11:21:50;3;3;
40947;PMS5003;49382;-25.924;28.194;2023-02-28T11:24:14;2;2;
40947;PMS5003;49382;-25.924;28.194;2023-02-28T11:26:40;4;4;
40947;PMS5003;49382;-25.924;28.194;2023-02-28T11:29:09;3;3;
40947;PMS5003;49382;-25.924;28.194;2023-02-28T11:31:30;4;4;
40947;PMS5003;49382;-25.924;28.194;2023-02-28T11:33:56;4;4;
40947;PMS5003;49382;-25.924;28.194;2023-02-28T11:36:23;5;5;
40947;PMS5003;49382;-25.924;28.194;2023-02-28T11:38:47;6;6;
40947;PMS5003;49382;-25.924;28.194;2023-02-28T11:43:43;7;7;
40947;PMS5003;49382;-25.924;28.194;2023-02-28T11:46:08;4;4;
40947;PMS5003;49382;-25.924;28.194;2023-02-28T11:48:32;5;5;
40947;PMS5003;49382;-25.924;28.194;2023-02-28T11:50:58;5;5;
40947;PMS5003;49382;-25.924;28.194;2023-02-28T11:53:35;5;5;
40947;PMS5003;49382;-25.924;28.194;2023-02-28T11:55:48;4;4;
40947;PMS5003;49382;-25.924;28.194;2023-02-28T12:00:42;6;6;
40947;PMS5003;49382;-25.924;28.194;2023-02-28T12:03:08;6;6;
40947;PMS5003;49382;-25.924;28.194;2023-02-28T12:05:31;6;6;
40947;PMS5003;49382;-25.924;28.194;2023-02-28T12:08:00;5;5;
40947;PMS5003;49382;-25.924;28.194;2023-02-28T12:10:22;5;5;
40947;PMS5003;49382;-25.924;28.194;2023-02-28T12:12:48;5;5;
40947;PMS5003;49382;-25.924;28.194;2023-02-28T12:15:17;6;6;
40947;PMS5003;49382;-25.924;28.194;2023-02-28T12:17:43;6;6;
40947;PMS5003;49382;-25.924;28.194;2023-02-28T12:20:08;5;5;
40947;PMS5003;49382;-25.924;28.194;2023-02-28T12:22:30;6;6;
40947;PMS5003;49382;-25.924;28.194;2023-02-28T12:27:23;5;5;
40947;PMS5003;49382;-25.924;28.194;2023-02-28T12:29:49;4;4;
40947;PMS5003;49382;-25.924;28.194;2023-02-28T12:32:14;6;6;
40947;PMS5003;49382;-25.924;28.194;2023-02-28T12:34:39;5;5;
40947;PMS5003;49382;-25.924;28.194;2023-02-28T12:37:06;6;5;
40947;PMS5003;49382;-25.924;28.194;2023-02-28T12:39:31;5;5;
40947;PMS5003;49382;-25.924;28.194;2023-02-28T12:41:56;5;5;
40947;PMS5003;49382;-25.924;28.194;2023-02-28T12:44:23;8;8;
40947;PMS5003;49382;-25.924;28.194;2023-02-28T12:46:48;9;9;
40947;PMS5003;49382;-25.924;28.194;2023-02-28T12:49:14;8;8;
40947;PMS5003;49382;-25.924;28.194;2023-02-28T12:51:38;9;9;
40947;PMS5003;49382;-25.924;28.194;2023-02-28T12:54:07;10;10;
40947;PMS5003;49382;-25.924;28.194;2023-02-28T12:56:33;8;8;
40947;PMS5003;49382;-25.924;28.194;2023-02-28T12:58:56;8;8;
40947;PMS5003;49382;-25.924;28.194;2023-02-28T13:01:29;8;8;
40947;PMS5003;49382;-25.924;28.194;2023-02-28T13:03:51;9;8;
40947;PMS5003;49382;-25.924;28.194;2023-02-28T13:11:04;8;8;
40947;PMS5003;49382;-25.924;28.194;2023-02-28T13:13:30;6;6;
40947;PMS5003;49382;-25.924;28.194;2023-02-28T13:15:58;8;8;
40947;PMS5003;49382;-25.924;28.194;2023-02-28T13:18:27;10;10;
40947;PMS5003;49382;-25.924;28.194;2023-02-28T13:20:47;9;9;
40947;PMS5003;49382;-25.924;28.194;2023-02-28T13:28:08;9;9;
40947;PMS5003;49382;-25.924;28.194;2023-02-28T13:37:47;11;11;
40947;PMS5003;49382;-25.924;28.194;2023-02-28T13:47:31;12;12;
40947;PMS5003;49382;-25.924;28.194;2023-02-28T13:52:22;13;13;
40947;PMS5003;49382;-25.924;28.194;2023-02-28T13:54:51;13;13;
40947;PMS5003;49382;-25.924;28.194;2023-02-28T13:57:18;16;15;
40947;PMS5003;49382;-25.924;28.194;2023-02-28T13:59:43;13;13;
40947;PMS5003;49382;-25.924;28.194;2023-02-28T14:06:56;13;13;
40947;PMS5003;49382;-25.924;28.194;2023-02-28T14:09:24;11;11;
40947;PMS5003;49382;-25.924;28.194;2023-02-28T14:11:48;13;13;
40947;PMS5003;49382;-25.924;28.194;2023-02-28T14:16:40;14;14;
40947;PMS5003;49382;-25.924;28.194;2023-02-28T14:19:09;16;14;
40947;PMS5003;49382;-25.924;28.194;2023-02-28T14:21:31;12;12;
40947;PMS5003;49382;-25.924;28.194;2023-02-28T14:28:53;12;12;
40947;PMS5003;49382;-25.924;28.194;2023-02-28T14:31:15;12;12;
40947;PMS5003;49382;-25.924;28.194;2023-02-28T14:33:44;12;12;
40947;PMS5003;49382;-25.924;28.194;2023-02-28T14:36:08;12;12;
40947;PMS5003;49382;-25.924;28.194;2023-02-28T14:38:32;14;14;
40947;PMS5003;49382;-25.924;28.194;2023-02-28T14:40:57;12;12;
40947;PMS5003;49382;-25.924;28.194;2023-02-28T14:43:23;13;12;
40947;PMS5003;49382;-25.924;28.194;2023-02-28T14:45:49;11;11;
40947;PMS5003;49382;-25.924;28.194;2023-02-28T14:48:14;9;9;
40947;PMS5003;49382;-25.924;28.194;2023-02-28T14:50:39;9;9;
40947;PMS5003;49382;-25.924;28.194;2023-02-28T14:53:06;10;9;
40947;PMS5003;49382;-25.924;28.194;2023-02-28T14:55:33;8;7;
40947;PMS5003;49382;-25.924;28.194;2023-02-28T14:57:57;9;9;
40947;PMS5003;49382;-25.924;28.194;2023-02-28T15:00:24;13;13;
40947;PMS5003;49382;-25.924;28.194;2023-02-28T15:02:48;10;10;
40947;PMS5003;49382;-25.924;28.194;2023-02-28T15:05:19;12;11;
40947;PMS5003;49382;-25.924;28.194;2023-02-28T15:07:40;10;10;
40947;PMS5003;49382;-25.924;28.194;2023-02-28T15:10:07;9;9;
40947;PMS5003;49382;-25.924;28.194;2023-02-28T15:12:31;11;11;
40947;PMS5003;49382;-25.924;28.194;2023-02-28T15:14:57;9;9;
40947;PMS5003;49382;-25.924;28.194;2023-02-28T15:17:23;10;9;
40947;PMS5003;49382;-25.924;28.194;2023-02-28T15:19:49;11;11;
40947;PMS5003;49382;-25.924;28.194;2023-02-28T15:22:15;9;9;
40947;PMS5003;49382;-25.924;28.194;2023-02-28T15:24:41;8;8;
40947;PMS5003;49382;-25.924;28.194;2023-02-28T15:27:06;10;10;
40947;PMS5003;49382;-25.924;28.194;2023-02-28T15:29:34;11;11;
40947;PMS5003;49382;-25.924;28.194;2023-02-28T15:32:00;11;11;
40947;PMS5003;49382;-25.924;28.194;2023-02-28T15:34:26;11;11;
40947;PMS5003;49382;-25.924;28.194;2023-02-28T15:36:48;10;10;
40947;PMS5003;49382;-25.924;28.194;2023-02-28T15:39:19;12;12;
40947;PMS5003;49382;-25.924;28.194;2023-02-28T15:41:40;14;13;
40947;PMS5003;49382;-25.924;28.194;2023-02-28T15:46:32;14;14;
40947;PMS5003;49382;-25.924;28.194;2023-02-28T15:48:57;17;17;
40947;PMS5003;49382;-25.924;28.194;2023-02-28T15:51:24;18;18;
40947;PMS5003;49382;-25.924;28.194;2023-02-28T15:53:50;16;16;
40947;PMS5003;49382;-25.924;28.194;2023-02-28T15:56:19;15;15;
40947;PMS5003;49382;-25.924;28.194;2023-02-28T15:58:41;15;15;
40947;PMS5003;49382;-25.924;28.194;2023-02-28T16:01:07;15;15;
40947;PMS5003;49382;-25.924;28.194;2023-02-28T16:08:23;22;22;
40947;PMS5003;49382;-25.924;28.194;2023-02-28T16:10:49;24;24;
40947;PMS5003;49382;-25.924;28.194;2023-02-28T16:13:14;19;19;
40947;PMS5003;49382;-25.924;28.194;2023-02-28T16:15:41;21;21;
40947;PMS5003;49382;-25.924;28.194;2023-02-28T16:18:07;20;20;
40947;PMS5003;49382;-25.924;28.194;2023-02-28T16:20:33;20;20;
40947;PMS5003;49382;-25.924;28.194;2023-02-28T16:22:57;21;21;
40947;PMS5003;49382;-25.924;28.194;2023-02-28T16:25:24;17;16;
40947;PMS5003;49382;-25.924;28.194;2023-02-28T16:27:49;14;14;
40947;PMS5003;49382;-25.924;28.194;2023-02-28T16:30:17;15;15;
40947;PMS5003;49382;-25.924;28.194;2023-02-28T16:32:40;15;15;
40947;PMS5003;49382;-25.924;28.194;2023-02-28T16:35:09;17;15;
40947;PMS5003;49382;-25.924;28.194;2023-02-28T16:37:32;16;16;
40947;PMS5003;49382;-25.924;28.194;2023-02-28T16:39:57;15;15;
40947;PMS5003;49382;-25.924;28.194;2023-02-28T16:42:24;18;17;
40947;PMS5003;49382;-25.924;28.194;2023-02-28T16:44:49;16;16;
40947;PMS5003;49382;-25.924;28.194;2023-02-28T16:47:15;17;17;
40947;PMS5003;49382;-25.924;28.194;2023-02-28T16:49:41;17;17;
40947;PMS5003;49382;-25.924;28.194;2023-02-28T16:52:06;18;18;
40947;PMS5003;49382;-25.924;28.194;2023-02-28T16:54:32;18;18;
40947;PMS5003;49382;-25.924;28.194;2023-02-28T16:56:58;23;23;
40947;PMS5003;49382;-25.924;28.194;2023-02-28T16:59:24;26;26;
40947;PMS5003;49382;-25.924;28.194;2023-02-28T17:01:49;19;18;
40947;PMS5003;49382;-25.924;28.194;2023-02-28T17:04:15;19;19;
40947;PMS5003;49382;-25.924;28.194;2023-02-28T17:06:41;30;30;
40947;PMS5003;49382;-25.924;28.194;2023-02-28T17:09:08;29;28;
40947;PMS5003;49382;-25.924;28.194;2023-02-28T17:11:32;20;20;